Fairbanks, Fairbanks International Airport (PAFA)

NameFairbanks International Airport
CityFairbanks
CountryUnited States
ICAOPAFA
IATAFAI
Altitude439 feet
CoordinatesGoogle Map
Live Air TrafficLiveATC.net
METARPAFA 230753Z 23003KT 10SM FEW070 FEW090 SCT200 21/14 A2992
2024-07-23 07:53:00 Wind: Southwest (230°) 1.54 m/s - Visibility: 16093.4 m - Temperature: 21 °C - Dew point: 14 °C - Humidity: 64.4% - Pressure: 1013.21 hPa

Sorry, no flights used the airport in this database.